Time;durP1;ratioP1;P1;durP2;ratioP2;P2;SDS_P1;SDS_P2;PMS_P1;PMS_P2;Temp;Humidity;BMP_temperature;BMP_pressure;BME280_temperature;BME280_humidity;BME280_pressure;Samples;Min_cycle;Max_cycle;Signal;HPM_P1;HPM_P2
2022/01/13 00:00:18;;;;;;;67.70;35.00;;;;;;;-11.02;79.53;98983.39;110021;1248;71441;-67
2022/01/13 00:03:07;;;;;;;59.10;31.40;;;;;;;-11.06;79.72;98981.04;109732;1251;68447;-65
2022/01/13 00:05:38;;;;;;;57.10;29.90;;;;;;;-11.08;79.80;98986.01;109806;1251;68803;-65
2022/01/13 00:08:07;;;;;;;59.20;30.90;;;;;;;-11.12;80.85;98991.58;109943;1250;59741;-68
2022/01/13 00:10:36;;;;;;;51.70;28.90;;;;;;;-11.15;81.16;98996.17;109912;1251;59698;-69
2022/01/13 00:13:08;;;;;;;55.40;28.80;;;;;;;-11.17;81.40;98993.42;109793;1250;70555;-64
2022/01/13 00:15:45;;;;;;;53.00;28.70;;;;;;;-11.17;81.16;98991.90;109622;1250;67892;-69
2022/01/13 00:18:18;;;;;;;39.50;21.50;;;;;;;-11.18;81.88;99004.48;110087;1250;69458;-69
2022/01/13 00:26:31;;;;;;;74.40;40.70;;;;;;;-11.09;81.01;99001.47;109587;1253;72352;-67
2022/01/13 00:29:02;;;;;;;56.70;31.20;;;;;;;-11.08;79.97;99002.02;110000;1247;68751;-68
2022/01/13 00:31:35;;;;;;;33.90;22.10;;;;;;;-11.08;79.60;99010.28;110080;1247;69526;-66
2022/01/13 00:34:06;;;;;;;38.70;23.20;;;;;;;-11.07;78.90;99011.98;110075;1247;59655;-64
2022/01/13 00:36:38;;;;;;;23.80;13.50;;;;;;;-11.08;78.11;99008.57;110092;1247;59744;-65
2022/01/13 00:39:09;;;;;;;23.90;12.60;;;;;;;-11.10;77.97;99006.63;110128;1247;70773;-67
2022/01/13 00:41:39;;;;;;;57.70;33.20;;;;;;;-11.12;77.61;99003.22;110149;1247;68600;-67
2022/01/13 00:44:09;;;;;;;38.30;21.60;;;;;;;-11.16;78.19;99008.27;110081;1247;68754;-67
2022/01/13 00:46:42;;;;;;;23.00;11.70;;;;;;;-11.19;77.48;99009.16;110163;1247;59732;-64
2022/01/13 00:49:14;;;;;;;41.10;23.60;;;;;;;-11.21;76.67;99011.95;110028;1248;59677;-68
2022/01/13 00:51:43;;;;;;;64.30;34.40;;;;;;;-11.24;77.84;99011.16;110004;1247;70898;-69
2022/01/13 00:54:13;;;;;;;55.00;32.10;;;;;;;-11.25;78.33;99016.66;109883;1250;69290;-68
2022/01/13 00:56:43;;;;;;;62.30;35.80;;;;;;;-11.27;78.50;99016.42;110015;1249;69458;-67
2022/01/13 00:59:14;;;;;;;37.80;20.40;;;;;;;-11.29;79.70;99010.83;110069;1247;59680;-67
2022/01/13 01:01:47;;;;;;;66.30;32.40;;;;;;;-11.27;80.60;99009.52;110109;1250;59670;-67
2022/01/13 01:04:18;;;;;;;45.50;25.70;;;;;;;-11.25;81.08;99005.56;109941;1248;70614;-67
2022/01/13 01:06:48;;;;;;;32.20;18.80;;;;;;;-11.22;78.92;98999.95;110073;1248;67923;-69
2022/01/13 01:12:08;;;;;;;35.40;18.90;;;;;;;-11.18;77.93;98988.66;109998;1250;59745;-68
2022/01/13 01:14:45;;;;;;;44.00;23.20;;;;;;;-11.19;77.50;98986.08;109850;1247;59658;-69
2022/01/13 01:17:16;;;;;;;40.40;21.40;;;;;;;-11.22;76.96;98989.03;110097;1247;71639;-67
2022/01/13 01:19:49;;;;;;;61.70;37.00;;;;;;;-11.25;77.09;98994.61;110031;1247;68665;-66
2022/01/13 01:25:18;;;;;;;36.40;20.90;;;;;;;-11.35;77.14;99003.33;110161;1247;59729;-66
2022/01/13 01:27:51;;;;;;;62.20;34.10;;;;;;;-11.40;77.33;99005.17;110220;1248;59627;-69
2022/01/13 01:30:35;;;;;;;68.50;36.60;;;;;;;-11.44;77.49;99001.81;110087;1247;71757;-69
2022/01/13 01:33:07;;;;;;;51.90;27.60;;;;;;;-11.48;78.91;99004.48;110085;1247;67691;-68
2022/01/13 01:35:38;;;;;;;42.40;22.80;;;;;;;-11.53;78.54;99001.59;109990;1248;68494;-68
2022/01/13 01:38:09;;;;;;;;;;;;;;;-11.58;77.56;99006.83;110061;1248;60164;-68
2022/01/13 01:40:38;;;;;;;45.60;23.10;;;;;;;-11.62;77.65;99012.03;110090;1247;59682;-68
2022/01/13 01:43:08;;;;;;;41.20;20.20;;;;;;;-11.66;77.63;99015.37;109825;1247;71571;-69
2022/01/13 01:45:44;;;;;;;25.90;15.40;;;;;;;-11.69;76.95;99014.77;110078;1246;68621;-68
2022/01/13 01:48:19;;;;;;;22.50;13.10;;;;;;;-11.73;76.84;99008.55;110049;1248;68350;-68
2022/01/13 01:50:58;;;;;;;46.70;24.50;;;;;;;-11.78;76.82;99005.64;109877;1247;59684;-68
2022/01/13 01:53:28;;;;;;;30.00;18.50;;;;;;;-11.83;76.92;99011.72;110064;1249;59695;-69
2022/01/13 01:55:58;;;;;;;42.90;23.80;;;;;;;-11.87;77.18;99011.05;109913;1251;71503;-68
2022/01/13 01:58:28;;;;;;;40.70;25.40;;;;;;;-11.90;78.21;99020.52;109810;1248;67662;-68
2022/01/13 02:00:57;;;;;;;43.80;24.60;;;;;;;-11.94;79.40;99027.39;110024;1248;68604;-66
2022/01/13 02:03:30;;;;;;;46.70;27.00;;;;;;;-11.95;79.62;99028.38;110035;1247;59739;-68
2022/01/13 02:06:00;;;;;;;38.40;24.40;;;;;;;-11.95;79.76;99028.38;110086;1248;59674;-69
2022/01/13 02:08:29;;;;;;;;;;;;;;;-11.96;79.72;99027.84;110078;1248;71567;-65
2022/01/13 02:10:59;;;;;;;18.30;9.60;;;;;;;-11.95;78.93;99031.05;109943;1248;67642;-68
2022/01/13 02:13:33;;;;;;;20.50;12.30;;;;;;;-11.95;77.72;99030.04;109981;1250;69234;-67
2022/01/13 02:16:16;;;;;;;34.70;19.10;;;;;;;-11.96;77.90;99035.41;110196;1248;59656;-70
2022/01/13 02:18:46;;;;;;;21.40;12.40;;;;;;;-11.95;77.73;99038.81;109985;1250;59699;-68
2022/01/13 02:21:16;;;;;;;;;;;;;;;-11.93;77.12;99044.91;110125;1250;71519;-68
2022/01/13 02:23:46;;;;;;;25.00;15.00;;;;;;;-11.92;77.78;99041.09;110107;1247;67657;-67
2022/01/13 02:26:15;;;;;;;28.10;18.20;;;;;;;-11.92;78.08;99041.45;109889;1250;68662;-67
2022/01/13 02:28:45;;;;;;;10.90;6.60;;;;;;;-11.93;77.86;99040.23;110048;1250;59746;-67
2022/01/13 02:31:15;;;;;;;30.90;18.10;;;;;;;-11.93;77.06;99041.23;110080;1249;59757;-69
2022/01/13 02:33:46;;;;;;;27.80;16.30;;;;;;;-11.94;77.27;99040.67;110028;1250;71208;-68
2022/01/13 02:36:20;;;;;;;28.80;14.80;;;;;;;-11.95;77.08;99037.95;110026;1248;68581;-67
2022/01/13 02:38:51;;;;;;;42.70;23.30;;;;;;;-11.98;77.63;99044.54;109719;1250;67685;-68
2022/01/13 02:41:25;;;;;;;29.40;16.70;;;;;;;-11.99;78.31;99048.19;109872;1250;59710;-68
2022/01/13 02:43:58;;;;;;;30.50;18.10;;;;;;;-11.97;76.88;99053.69;109613;1250;59695;-68
2022/01/13 02:49:10;;;;;;;48.10;25.10;;;;;;;-11.87;76.40;99054.13;109899;1250;67892;-67
2022/01/13 02:51:42;;;;;;;46.80;23.90;;;;;;;-11.87;76.50;99054.10;109811;1250;69508;-69
2022/01/13 02:54:11;;;;;;;53.50;27.80;;;;;;;-11.90;77.26;99055.30;109810;1251;59673;-67
2022/01/13 02:56:43;;;;;;;50.90;28.80;;;;;;;-11.95;77.89;99059.14;109632;1250;59653;-69
2022/01/13 02:59:14;;;;;;;30.00;19.60;;;;;;;-12.00;77.15;99057.75;109647;1251;70749;-69
2022/01/13 03:01:44;;;;;;;48.30;28.10;;;;;;;-12.06;77.07;99054.15;109788;1250;68245;-67
2022/01/13 03:04:14;;;;;;;39.40;21.10;;;;;;;-12.10;77.48;99057.31;109615;1250;69592;-69
2022/01/13 03:06:44;;;;;;;33.50;18.80;;;;;;;-12.15;77.10;99060.15;109750;1250;59805;-68
2022/01/13 03:09:13;;;;;;;22.20;14.10;;;;;;;-12.17;77.15;99055.86;109780;1250;59685;-68
2022/01/13 03:11:45;;;;;;;29.90;16.50;;;;;;;-12.14;76.44;99053.79;109838;1250;71649;-65
2022/01/13 03:14:14;;;;;;;30.50;18.00;;;;;;;-12.14;76.72;99054.65;109715;1250;68589;-65
2022/01/13 03:16:45;;;;;;;29.20;14.40;;;;;;;-12.16;76.56;99052.70;109589;1251;69409;-64
2022/01/13 03:19:15;;;;;;;22.60;13.10;;;;;;;-12.18;76.42;99050.09;109735;1251;59739;-64
2022/01/13 03:21:47;;;;;;;26.30;13.50;;;;;;;-12.19;76.25;99054.08;109715;1252;59614;-65
2022/01/13 03:24:18;;;;;;;33.90;18.20;;;;;;;-12.21;76.43;99059.86;109826;1250;71661;-69
2022/01/13 03:26:49;;;;;;;56.10;29.10;;;;;;;-12.24;76.71;99055.39;109786;1251;67964;-70
2022/01/13 03:29:22;;;;;;;49.70;25.10;;;;;;;-12.27;77.88;99051.89;109694;1251;69737;-71
2022/01/13 03:31:53;;;;;;;24.80;16.10;;;;;;;-12.29;77.57;99051.80;109911;1247;59726;-69
2022/01/13 03:34:25;;;;;;;40.50;22.30;;;;;;;-12.33;77.19;99048.65;110074;1249;59661;-69
2022/01/13 03:36:56;;;;;;;13.00;8.00;;;;;;;-12.35;77.14;99049.02;109734;1250;70761;-68
2022/01/13 03:39:28;;;;;;;32.80;18.50;;;;;;;-12.36;76.68;99046.98;109922;1250;67594;-68
2022/01/13 03:42:01;;;;;;;33.90;20.90;;;;;;;-12.39;77.42;99044.50;109936;1249;69408;-67
2022/01/13 03:44:32;;;;;;;32.70;17.80;;;;;;;-12.40;77.07;99042.42;110046;1248;59757;-69
2022/01/13 03:47:04;;;;;;;51.60;28.00;;;;;;;-12.42;77.17;99039.30;109923;1248;59692;-66
2022/01/13 03:49:34;;;;;;;53.50;30.90;;;;;;;-12.44;77.98;99041.23;109853;1249;71420;-69
2022/01/13 03:52:24;;;;;;;56.60;32.50;;;;;;;-12.47;78.83;99043.79;109802;1250;68654;-70
2022/01/13 03:55:35;;;;;;;60.70;30.70;;;;;;;-12.49;79.76;99045.39;109909;1248;69371;-70
2022/01/13 03:58:51;;;;;;;27.60;17.60;;;;;;;-12.52;78.98;99045.12;109663;1250;59719;-66
2022/01/13 04:01:44;;;;;;;45.40;22.80;;;;;;;-12.52;77.82;99042.91;109641;1250;59736;-68
2022/01/13 04:04:16;;;;;;;55.50;26.00;;;;;;;-12.54;78.47;99048.19;109775;1250;71579;-66
2022/01/13 04:06:46;;;;;;;58.30;30.60;;;;;;;-12.55;79.02;99046.80;110009;1247;68598;-66
2022/01/13 04:09:23;;;;;;;51.90;30.00;;;;;;;-12.58;78.63;99050.55;109918;1247;69498;-65
2022/01/13 04:11:53;;;;;;;33.00;18.90;;;;;;;-12.64;78.98;99051.11;109938;1247;59752;-66
2022/01/13 04:14:36;;;;;;;45.50;22.60;;;;;;;-12.69;78.24;99056.76;110025;1247;59720;-65
2022/01/13 04:17:07;;;;;;;27.50;13.40;;;;;;;-12.73;78.78;99060.97;110057;1247;71534;-69
2022/01/13 04:19:39;;;;;;;54.60;26.80;;;;;;;-12.71;78.40;99066.23;109920;1250;68648;-72
2022/01/13 04:22:09;;;;;;;59.30;32.00;;;;;;;-12.70;77.98;99067.80;109777;1251;68108;-66
2022/01/13 04:24:45;;;;;;;51.00;27.60;;;;;;;-12.70;78.15;99079.55;109994;1248;59687;-67
2022/01/13 04:27:24;;;;;;;39.40;21.80;;;;;;;-12.72;78.25;99079.61;109928;1248;59684;-70
2022/01/13 04:32:43;;;;;;;46.10;27.70;;;;;;;-12.77;77.97;99096.67;110007;1247;67816;-65
2022/01/13 04:35:14;;;;;;;38.10;19.30;;;;;;;-12.83;78.09;99094.77;109986;1248;69438;-66
2022/01/13 04:37:48;;;;;;;53.70;27.40;;;;;;;-12.86;78.21;99096.30;109844;1249;59768;-68
2022/01/13 04:40:21;;;;;;;32.60;16.20;;;;;;;-12.87;77.90;99100.94;109637;1250;59724;-65
2022/01/13 04:42:54;;;;;;;62.90;33.70;;;;;;;-12.88;78.02;99107.63;109663;1249;70050;-67
2022/01/13 04:45:25;;;;;;;54.10;30.30;;;;;;;-12.88;80.25;99122.06;110046;1247;68540;-68
2022/01/13 04:47:57;;;;;;;38.10;22.10;;;;;;;-12.86;79.62;99129.85;109938;1249;68702;-65
2022/01/13 04:50:28;;;;;;;36.30;19.60;;;;;;;-12.84;77.88;99132.84;109863;1247;59755;-68
2022/01/13 04:52:59;;;;;;;36.90;21.70;;;;;;;-12.82;77.21;99134.06;109845;1249;59651;-64
2022/01/13 04:55:32;;;;;;;50.90;28.90;;;;;;;-12.85;77.29;99131.62;109829;1250;71593;-70
2022/01/13 04:58:02;;;;;;;53.40;32.00;;;;;;;-12.90;77.52;99130.02;109999;1248;67635;-67
2022/01/13 05:00:34;;;;;;;57.60;29.80;;;;;;;-12.93;78.77;99137.45;109830;1249;69512;-68
2022/01/13 05:03:03;;;;;;;30.70;17.20;;;;;;;-12.95;78.58;99141.39;109777;1250;59698;-68
2022/01/13 05:05:33;;;;;;;40.20;24.30;;;;;;;-12.95;77.98;99137.17;109825;1247;59650;-69
2022/01/13 05:08:04;;;;;;;34.90;19.70;;;;;;;-12.91;77.71;99132.65;109959;1247;70833;-67
2022/01/13 05:10:34;;;;;;;45.70;24.00;;;;;;;-12.84;77.30;99125.45;109790;1248;68990;-68
2022/01/13 05:13:08;;;;;;;;;;;;;;;-12.81;77.74;99128.73;110096;1247;68996;-68
2022/01/13 05:15:40;;;;;;;43.60;23.00;;;;;;;-12.86;78.36;99138.79;109972;1250;59777;-66
2022/01/13 05:20:49;;;;;;;30.60;18.00;;;;;;;-12.96;78.06;99153.57;110004;1248;71660;-69
2022/01/13 05:23:19;;;;;;;58.10;29.60;;;;;;;-13.00;77.68;99158.24;109827;1250;68582;-65
2022/01/13 05:25:49;;;;;;;67.20;37.90;;;;;;;-13.06;78.36;99154.27;109870;1248;69597;-65
2022/01/13 05:28:18;;;;;;;64.30;35.10;;;;;;;-13.13;79.40;99152.91;110151;1247;59769;-66
2022/01/13 05:30:48;;;;;;;62.90;32.20;;;;;;;-13.17;79.99;99146.52;110049;1247;59731;-66
2022/01/13 05:33:17;;;;;;;49.40;26.10;;;;;;;-13.20;80.10;99148.59;109750;1250;70943;-66
2022/01/13 05:35:47;;;;;;;47.70;27.20;;;;;;;-13.22;79.63;99149.67;109951;1250;67181;-65
2022/01/13 05:38:18;;;;;;;54.30;29.50;;;;;;;-13.24;79.78;99151.59;110025;1247;68635;-67
2022/01/13 05:40:48;;;;;;;50.70;28.70;;;;;;;-13.27;79.90;99153.11;110023;1247;59631;-69
2022/01/13 05:43:17;;;;;;;48.20;26.30;;;;;;;-13.29;79.74;99150.16;110017;1249;59719;-68
2022/01/13 05:45:47;;;;;;;49.00;23.40;;;;;;;-13.31;79.61;99159.98;110012;1247;71575;-68
2022/01/13 05:48:16;;;;;;;39.80;22.10;;;;;;;-13.31;79.45;99159.60;110114;1247;67599;-68
2022/01/13 05:50:46;;;;;;;29.90;17.60;;;;;;;-13.32;80.12;99158.57;110086;1247;69394;-70
2022/01/13 05:53:15;;;;;;;26.70;14.90;;;;;;;-13.30;79.13;99163.52;110021;1247;59701;-69
2022/01/13 05:55:44;;;;;;;35.30;22.10;;;;;;;-13.25;78.80;99167.42;110136;1247;59675;-65
2022/01/13 05:58:14;;;;;;;41.30;23.80;;;;;;;-13.25;79.47;99169.01;110041;1247;70795;-69
2022/01/13 06:00:43;;;;;;;49.00;26.40;;;;;;;-13.23;79.62;99171.10;110069;1247;69077;-66
2022/01/13 06:03:13;;;;;;;32.50;21.20;;;;;;;-13.23;78.79;99165.56;110062;1247;69846;-65
2022/01/13 06:05:42;;;;;;;45.90;23.50;;;;;;;-13.24;78.74;99175.94;110070;1247;59693;-69
2022/01/13 06:08:12;;;;;;;19.90;9.80;;;;;;;-13.24;78.89;99178.28;110069;1248;59674;-64
2022/01/13 06:10:44;;;;;;;30.90;16.60;;;;;;;-13.20;79.44;99171.20;110038;1247;70903;-66
2022/01/13 06:13:14;;;;;;;33.30;16.90;;;;;;;-13.15;78.67;99176.48;110098;1247;68593;-67
2022/01/13 06:15:43;;;;;;;49.30;27.80;;;;;;;-13.11;78.11;99181.89;110069;1247;68468;-65
2022/01/13 06:18:14;;;;;;;94.30;47.90;;;;;;;-13.10;79.38;99190.50;110101;1247;59708;-68
2022/01/13 06:20:43;;;;;;;42.60;25.10;;;;;;;-13.05;81.16;99189.55;110057;1247;59663;-67
2022/01/13 06:23:15;;;;;;;63.00;28.90;;;;;;;-12.99;79.05;99179.63;110051;1249;72333;-64
2022/01/13 06:25:44;;;;;;;50.40;23.00;;;;;;;-12.93;78.10;99177.91;110117;1247;68991;-66
2022/01/13 06:28:13;;;;;;;43.80;23.90;;;;;;;-12.89;77.98;99178.91;110082;1247;69589;-68
2022/01/13 06:30:44;;;;;;;65.60;35.40;;;;;;;-12.86;77.67;99180.06;110116;1247;60152;-68
2022/01/13 06:33:12;;;;;;;;;;;;;;;-12.83;78.57;99174.52;110097;1248;59641;-67
2022/01/13 06:35:42;;;;;;;59.60;33.30;;;;;;;-12.80;79.18;99176.79;110060;1247;71516;-69
2022/01/13 06:38:11;;;;;;;61.10;32.90;;;;;;;-12.77;79.09;99181.98;109828;1249;67889;-69
2022/01/13 06:40:40;;;;;;;33.60;20.10;;;;;;;-12.73;78.86;99183.88;110066;1248;68501;-68
2022/01/13 06:43:09;;;;;;;49.10;24.40;;;;;;;-12.65;78.06;99175.32;110054;1247;59742;-68
2022/01/13 06:45:39;;;;;;;55.60;26.60;;;;;;;-12.57;77.47;99165.14;110143;1247;59712;-67
2022/01/13 06:48:08;;;;;;;55.50;28.90;;;;;;;-12.50;77.42;99161.42;109821;1250;71560;-68
2022/01/13 06:50:38;;;;;;;80.00;37.30;;;;;;;-12.44;77.84;99151.13;110053;1248;67956;-67
2022/01/13 06:53:07;;;;;;;97.80;50.20;;;;;;;-12.38;77.32;99147.21;110033;1247;69424;-65
2022/01/13 06:55:37;;;;;;;112.40;55.50;;;;;;;-12.31;77.71;99148.85;109959;1249;59730;-67
2022/01/13 06:58:06;;;;;;;91.70;47.20;;;;;;;-12.23;77.80;99146.85;110044;1247;59660;-67
2022/01/13 07:00:35;;;;;;;36.60;20.00;;;;;;;-12.13;77.68;99155.04;110065;1247;70590;-68
2022/01/13 07:03:05;;;;;;;39.20;21.90;;;;;;;-12.02;77.45;99149.11;110084;1247;69374;-70
2022/01/13 07:05:34;;;;;;;27.30;16.70;;;;;;;-11.90;76.94;99146.30;110052;1247;68654;-68
2022/01/13 07:08:04;;;;;;;40.20;19.90;;;;;;;-11.74;76.79;99154.84;109937;1249;59740;-68
2022/01/13 07:10:34;;;;;;;31.00;16.60;;;;;;;-11.53;76.98;99150.88;109969;1247;59679;-65
2022/01/13 07:13:03;;;;;;;53.00;29.40;;;;;;;-11.08;76.90;99144.98;109854;1248;70716;-68
2022/01/13 07:15:33;;;;;;;54.30;30.20;;;;;;;-10.47;76.57;99145.63;109725;1250;68609;-68
2022/01/13 07:18:02;;;;;;;41.20;26.00;;;;;;;-9.83;75.48;99154.02;109986;1248;69270;-68
2022/01/13 07:20:31;;;;;;;50.70;27.40;;;;;;;-9.18;73.53;99156.77;109797;1247;59710;-69
2022/01/13 07:23:01;;;;;;;29.90;17.20;;;;;;;-8.56;74.23;99148.93;110043;1247;59673;-67
2022/01/13 07:25:30;;;;;;;43.50;23.60;;;;;;;-7.90;73.57;99152.36;109831;1249;71495;-68
2022/01/13 07:28:00;;;;;;;67.30;36.00;;;;;;;-7.29;71.06;99151.48;109814;1249;69096;-66
2022/01/13 07:30:30;;;;;;;73.10;38.10;;;;;;;-6.87;68.76;99155.90;109870;1250;69379;-68
2022/01/13 07:32:59;;;;;;;55.10;32.90;;;;;;;-6.46;65.49;99167.40;109983;1250;59768;-66
2022/01/13 07:35:29;;;;;;;82.60;45.60;;;;;;;-5.99;66.46;99194.89;110070;1247;59673;-69
2022/01/13 07:37:58;;;;;;;69.90;43.30;;;;;;;-5.48;64.62;99206.11;110189;1247;71471;-68
2022/01/13 07:40:28;;;;;;;86.20;50.20;;;;;;;-4.88;63.60;99219.96;110125;1248;67929;-68
2022/01/13 07:42:57;;;;;;;61.80;34.30;;;;;;;-4.28;59.80;99221.80;110159;1247;70288;-69
2022/01/13 07:45:26;;;;;;;47.90;28.40;;;;;;;-3.61;61.66;99210.46;110010;1249;59735;-68
2022/01/13 07:47:55;;;;;;;41.90;22.50;;;;;;;-2.97;60.34;99201.63;110158;1248;59670;-69
2022/01/13 07:50:28;;;;;;;59.00;32.40;;;;;;;-2.39;60.86;99211.85;110102;1247;70524;-68
2022/01/13 07:52:57;;;;;;;85.50;49.60;;;;;;;-1.99;52.54;99205.80;110002;1248;69523;-67
2022/01/13 07:55:27;;;;;;;70.80;38.10;;;;;;;-1.97;53.04;99198.30;109829;1250;69455;-69
2022/01/13 07:57:56;;;;;;;70.90;39.10;;;;;;;-1.79;53.56;99208.84;110154;1247;59667;-70
2022/01/13 08:00:25;;;;;;;56.50;31.90;;;;;;;-1.69;53.79;99211.79;110077;1247;59692;-69
2022/01/13 08:02:53;;;;;;;82.10;50.00;;;;;;;-1.45;53.80;99201.45;110082;1250;72196;-69
2022/01/13 08:05:23;;;;;;;68.10;44.60;;;;;;;-1.10;52.26;99198.81;110152;1247;67756;-68
2022/01/13 08:07:52;;;;;;;53.00;31.40;;;;;;;-0.94;50.14;99206.20;109984;1249;70011;-67
2022/01/13 08:10:21;;;;;;;63.70;39.30;;;;;;;-0.53;50.79;99208.84;110029;1249;60193;-71
2022/01/13 08:12:50;;;;;;;60.20;33.30;;;;;;;-0.27;48.66;99211.57;110211;1247;59698;-66
2022/01/13 08:15:19;;;;;;;53.60;32.20;;;;;;;-0.16;48.54;99214.98;109870;1250;71796;-68
2022/01/13 08:20:35;;;;;;;53.30;31.30;;;;;;;-1.62;50.47;99203.27;109957;1250;68772;-65
2022/01/13 08:23:04;;;;;;;52.00;28.20;;;;;;;-2.59;50.74;99189.32;110162;1247;59688;-69
2022/01/13 08:25:33;;;;;;;51.60;30.00;;;;;;;-3.46;52.95;99188.14;110138;1247;59835;-66
2022/01/13 08:28:04;;;;;;;48.60;30.50;;;;;;;-3.97;54.75;99181.39;110139;1248;71623;-69
2022/01/13 08:30:40;;;;;;;38.90;21.70;;;;;;;-4.34;55.70;99169.45;110187;1247;68730;-70
2022/01/13 08:33:09;;;;;;;40.00;22.90;;;;;;;-4.61;56.67;99168.20;110221;1247;68701;-68
2022/01/13 08:35:43;;;;;;;30.40;17.90;;;;;;;-4.84;57.11;99170.54;109980;1248;59749;-67
2022/01/13 08:38:16;;;;;;;29.50;17.10;;;;;;;-4.96;57.66;99173.08;110085;1247;59763;-68
2022/01/13 08:40:48;;;;;;;35.00;22.00;;;;;;;-5.06;58.60;99186.16;110134;1247;72180;-65
2022/01/13 08:43:17;;;;;;;37.90;22.30;;;;;;;-5.12;59.23;99197.61;110166;1247;68548;-68
2022/01/13 08:45:47;;;;;;;37.40;22.60;;;;;;;-5.12;59.03;99199.66;110132;1247;68615;-67
2022/01/13 08:48:17;;;;;;;48.80;27.30;;;;;;;-5.16;59.53;99204.16;110116;1247;60164;-68
2022/01/13 08:50:47;;;;;;;31.20;19.60;;;;;;;-5.17;60.34;99215.20;110195;1247;59699;-68
2022/01/13 08:53:17;;;;;;;43.80;25.30;;;;;;;-5.09;61.04;99210.92;110052;1248;71627;-68
2022/01/13 08:55:51;;;;;;;29.50;17.90;;;;;;;-5.00;60.91;99210.23;109970;1248;68378;-69
2022/01/13 08:58:23;;;;;;;39.10;22.30;;;;;;;-4.91;61.54;99207.69;110012;1248;70180;-69
2022/01/13 09:00:55;;;;;;;35.50;21.50;;;;;;;-4.78;60.71;99216.56;109802;1248;59778;-67
2022/01/13 09:03:28;;;;;;;52.20;27.40;;;;;;;-4.71;60.34;99219.10;109959;1250;59682;-68
2022/01/13 09:05:56;;;;;;;33.10;17.60;;;;;;;-4.65;60.16;99212.02;110044;1247;70555;-68
2022/01/13 09:08:26;;;;;;;30.60;19.80;;;;;;;-4.55;60.28;99205.55;109993;1248;68634;-70
2022/01/13 09:10:55;;;;;;;27.40;17.10;;;;;;;-4.49;60.63;99203.27;110223;1247;68657;-70
2022/01/13 09:13:24;;;;;;;48.60;28.50;;;;;;;-4.49;59.72;99207.36;109782;1247;246492;-67
2022/01/13 09:15:59;;;;;;;38.70;23.80;;;;;;;-4.63;59.59;99213.41;110035;1247;59739;-67
2022/01/13 09:18:58;;;;;;;53.40;29.40;;;;;;;-4.67;59.91;99224.43;109951;1247;71923;-70
2022/01/13 09:21:25;;;;;;;46.40;27.20;;;;;;;-4.70;59.79;99241.21;109969;1248;69122;-67
2022/01/13 09:23:55;;;;;;;53.50;30.00;;;;;;;-4.70;60.29;99231.69;110079;1250;69313;-69
2022/01/13 09:26:24;;;;;;;33.20;19.70;;;;;;;-4.70;60.24;99225.39;110080;1248;59679;-70
2022/01/13 09:28:53;;;;;;;55.20;31.70;;;;;;;-4.57;60.64;99222.70;109952;1250;59627;-66
2022/01/13 09:31:22;;;;;;;46.90;30.00;;;;;;;-4.54;61.12;99210.52;110125;1249;72102;-69
2022/01/13 09:33:51;;;;;;;43.00;25.60;;;;;;;-4.49;60.91;99201.57;110189;1250;68753;-69
2022/01/13 09:36:20;;;;;;;42.00;23.70;;;;;;;-4.52;60.87;99199.98;110129;1249;68667;-69
2022/01/13 09:38:50;;;;;;;43.80;25.40;;;;;;;-4.54;60.90;99202.50;109877;1250;60109;-67
2022/01/13 09:41:22;;;;;;;56.30;32.10;;;;;;;-4.53;61.01;99201.16;110017;1250;59676;-69
2022/01/13 09:43:52;;;;;;;53.00;32.30;;;;;;;-4.81;61.13;99190.83;109949;1250;71490;-69
2022/01/13 09:46:22;;;;;;;;;;;;;;;-5.13;62.21;99181.25;109921;1250;67698;-68
2022/01/13 09:48:51;;;;;;;;;;;;;;;-5.46;63.79;99169.27;109915;1250;70133;-71
2022/01/13 09:51:25;;;;;;;30.80;19.70;;;;;;;-5.45;63.86;99173.55;109832;1250;59767;-71
2022/01/13 09:53:54;;;;;;;50.90;30.50;;;;;;;-5.24;63.50;99172.73;109943;1250;59659;-70
2022/01/13 09:56:22;;;;;;;45.70;28.10;;;;;;;-5.11;63.83;99178.91;110109;1249;71597;-68
2022/01/13 09:58:51;;;;;;;63.20;37.70;;;;;;;-5.11;62.61;99182.50;109896;1249;69250;-70
2022/01/13 10:01:21;;;;;;;62.90;34.70;;;;;;;-5.15;63.20;99182.95;109949;1250;68871;-69
2022/01/13 10:03:50;;;;;;;46.30;24.60;;;;;;;-4.88;62.47;99168.61;110039;1250;59724;-69
2022/01/13 10:06:20;;;;;;;65.30;35.20;;;;;;;-4.21;60.85;99159.41;109807;1250;59741;-70
2022/01/13 10:08:52;;;;;;;62.40;38.00;;;;;;;-3.01;57.93;99155.66;110005;1250;72041;-66
2022/01/13 10:11:39;;;;;;;58.10;39.00;;;;;;;-1.97;54.50;99148.40;109984;1250;68090;-68
2022/01/13 10:14:15;;;;;;;48.60;27.70;;;;;;;-1.26;51.98;99142.33;109774;1250;69677;-68
2022/01/13 10:16:54;;;;;;;40.90;24.00;;;;;;;-0.48;49.72;99145.11;109989;1250;59739;-67
2022/01/13 10:19:39;;;;;;;39.60;23.20;;;;;;;0.46;46.20;99148.10;109942;1250;59689;-71
2022/01/13 10:22:20;;;;;;;37.30;20.70;;;;;;;1.50;43.95;99152.56;110034;1249;70536;-69
2022/01/13 10:24:52;;;;;;;43.00;26.60;;;;;;;2.44;42.62;99151.06;109968;1250;68410;-70
2022/01/13 10:27:23;;;;;;;42.20;24.60;;;;;;;2.81;38.62;99147.13;109974;1250;68727;-70
2022/01/13 10:29:55;;;;;;;39.20;24.70;;;;;;;2.87;39.60;99144.47;109990;1250;59716;-69
2022/01/13 10:32:26;;;;;;;36.50;22.20;;;;;;;3.34;40.14;99137.20;109940;1250;59757;-68
2022/01/13 10:35:08;;;;;;;39.70;23.80;;;;;;;3.58;38.20;99143.88;110041;1250;71477;-66
2022/01/13 10:37:38;;;;;;;39.10;22.30;;;;;;;3.83;38.29;99150.51;110013;1250;69065;-70
2022/01/13 10:40:10;;;;;;;41.10;25.70;;;;;;;4.15;39.11;99151.64;109934;1249;68693;-67
2022/01/13 10:45:32;;;;;;;36.00;22.90;;;;;;;4.33;36.47;99152.31;109903;1249;59694;-67
2022/01/13 10:48:06;;;;;;;41.10;27.50;;;;;;;4.69;37.66;99143.80;110106;1249;72159;-71
2022/01/13 10:50:47;;;;;;;36.70;22.00;;;;;;;5.42;38.12;99142.14;110054;1249;69290;-68
2022/01/13 10:53:23;;;;;;;30.60;19.30;;;;;;;5.58;33.04;99144.48;110019;1249;69198;-71
2022/01/13 10:55:58;;;;;;;26.70;16.60;;;;;;;5.21;34.76;99142.13;110070;1247;59762;-68
2022/01/13 10:58:30;;;;;;;25.00;15.80;;;;;;;5.31;36.97;99152.95;109988;1250;59679;-67
2022/01/13 11:01:00;;;;;;;26.60;17.30;;;;;;;5.25;36.91;99159.67;109936;1249;72295;-69
2022/01/13 11:03:33;;;;;;;28.80;19.60;;;;;;;5.20;36.45;99167.89;110082;1249;68998;-67
2022/01/13 11:06:05;;;;;;;31.10;17.40;;;;;;;5.28;34.33;99164.23;110066;1248;69544;-66
2022/01/13 11:08:44;;;;;;;25.60;14.70;;;;;;;5.51;35.10;99153.83;110074;1249;59628;-69
2022/01/13 11:11:27;;;;;;;31.20;19.90;;;;;;;5.85;35.06;99150.21;110141;1247;59711;-69
2022/01/13 11:14:21;;;;;;;35.30;22.10;;;;;;;6.04;34.90;99153.71;110178;1247;71615;-68
2022/01/13 11:16:51;;;;;;;30.00;17.90;;;;;;;5.73;34.35;99146.91;110087;1250;68595;-69
2022/01/13 11:19:20;;;;;;;30.50;19.10;;;;;;;5.09;35.01;99150.33;110019;1249;69288;-67
2022/01/13 11:21:50;;;;;;;31.40;18.80;;;;;;;4.24;36.32;99154.22;109939;1249;59672;-70
2022/01/13 11:24:19;;;;;;;;;;;;;;;3.34;37.10;99155.63;110084;1250;59676;-69
2022/01/13 11:26:49;;;;;;;36.40;21.80;;;;;;;2.35;38.75;99152.73;110117;1250;71573;-67
2022/01/13 11:29:18;;;;;;;27.20;15.30;;;;;;;1.68;40.17;99154.48;110133;1250;69147;-69
2022/01/13 11:31:48;;;;;;;25.00;16.20;;;;;;;1.40;41.47;99151.98;110013;1249;69887;-70
2022/01/13 11:34:18;;;;;;;37.40;24.00;;;;;;;1.12;42.24;99155.27;110181;1247;59659;-67
2022/01/13 11:36:47;;;;;;;37.80;23.00;;;;;;;0.68;43.12;99155.89;110110;1247;60188;-71
2022/01/13 11:39:17;;;;;;;35.40;19.50;;;;;;;0.19;44.26;99155.77;110106;1247;71312;-68
2022/01/13 11:42:03;;;;;;;32.20;19.40;;;;;;;-0.06;44.77;99143.67;110000;1250;68565;-69
2022/01/13 11:44:32;;;;;;;34.10;18.80;;;;;;;-0.31;45.15;99129.33;110047;1249;69377;-71
2022/01/13 11:47:08;;;;;;;28.70;16.90;;;;;;;-0.48;45.78;99119.93;110114;1247;59689;-70
2022/01/13 11:49:53;;;;;;;28.70;17.00;;;;;;;-0.53;46.21;99117.38;110142;1249;59758;-68
2022/01/13 11:52:55;;;;;;;36.40;22.50;;;;;;;-0.50;46.44;99109.31;110092;1248;70837;-69